createdAt,value
2019-05-16T00:00:28.968Z,7.90
2019-05-16T00:01:02.159Z,7.90
2019-05-16T00:01:35.151Z,7.90
2019-05-16T00:02:08.365Z,7.90
2019-05-16T00:02:41.054Z,7.90
2019-05-16T00:03:13.704Z,7.90
2019-05-16T00:03:48.910Z,8.00
2019-05-16T00:04:21.192Z,7.90
2019-05-16T00:04:53.862Z,7.90
2019-05-16T00:05:28.097Z,7.90
2019-05-16T00:06:00.930Z,7.90
2019-05-16T00:06:33.589Z,7.90
2019-05-16T00:07:08.062Z,7.90
2019-05-16T00:07:40.685Z,7.90
2019-05-16T00:08:13.615Z,7.90
2019-05-16T00:08:48.123Z,7.90
2019-05-16T00:09:21.400Z,7.80
2019-05-16T00:09:54.046Z,7.80
2019-05-16T00:10:28.131Z,7.90
2019-05-16T00:11:00.988Z,7.90
2019-05-16T00:11:33.646Z,7.90
2019-05-16T00:12:08.744Z,7.90
2019-05-16T00:12:41.293Z,7.90
2019-05-16T00:13:14.314Z,7.80
2019-05-16T00:13:48.922Z,7.90
2019-05-16T00:14:21.784Z,7.90
2019-05-16T00:14:54.787Z,7.80
2019-05-16T00:15:28.718Z,7.90
2019-05-16T00:16:01.593Z,7.90
2019-05-16T00:16:34.226Z,7.90
2019-05-16T00:17:08.361Z,7.90
2019-05-16T00:17:41.091Z,7.90
2019-05-16T00:18:14.378Z,7.90
2019-05-16T00:18:47.988Z,7.90
2019-05-16T00:19:20.791Z,7.90
2019-05-16T00:19:54.182Z,7.90
2019-05-16T00:20:28.402Z,7.90
2019-05-16T00:21:01.663Z,7.90
2019-05-16T00:21:34.676Z,7.90
2019-05-16T00:22:08.707Z,7.90
2019-05-16T00:22:41.816Z,7.80
2019-05-16T00:23:14.845Z,7.80
2019-05-16T00:23:48.513Z,7.80
2019-05-16T00:24:21.407Z,7.80
2019-05-16T00:24:54.470Z,7.80
2019-05-16T00:25:28.579Z,7.80
2019-05-16T00:26:01.869Z,7.80
2019-05-16T00:26:35.315Z,7.80
2019-05-16T00:27:08.647Z,7.80
2019-05-16T00:27:41.290Z,7.80
2019-05-16T00:28:14.563Z,7.80
2019-05-16T00:28:48.430Z,7.80
2019-05-16T00:29:21.338Z,7.80
2019-05-16T00:29:53.987Z,7.80
2019-05-16T00:30:28.732Z,7.90
2019-05-16T00:31:01.770Z,7.90
2019-05-16T00:31:34.834Z,7.90
2019-05-16T00:32:08.568Z,7.80
2019-05-16T00:32:41.346Z,7.80
2019-05-16T00:33:14.652Z,7.90
2019-05-16T00:33:48.732Z,7.90
2019-05-16T00:34:21.579Z,7.90
2019-05-16T00:34:54.218Z,7.80
2019-05-16T00:35:28.598Z,7.90
2019-05-16T00:36:05.661Z,7.80
2019-05-16T00:36:38.167Z,7.80
2019-05-16T00:37:10.772Z,7.80
2019-05-16T00:37:43.410Z,7.80
2019-05-16T00:38:18.263Z,7.80
2019-05-16T00:38:50.477Z,7.80
2019-05-16T00:39:23.122Z,7.80
2019-05-16T00:39:56.175Z,7.80
2019-05-16T00:40:28.831Z,7.80
2019-05-16T00:41:01.744Z,7.90
2019-05-16T00:41:34.389Z,7.90
2019-05-16T00:42:08.852Z,7.90
2019-05-16T00:42:41.519Z,7.90
2019-05-16T00:43:14.182Z,7.90
2019-05-16T00:43:48.545Z,7.90
2019-05-16T00:44:21.281Z,7.90
2019-05-16T00:44:53.923Z,7.90
2019-05-16T00:45:29.149Z,7.90
2019-05-16T00:46:01.041Z,7.90
2019-05-16T00:46:34.026Z,7.90
2019-05-16T00:47:08.749Z,7.90
2019-05-16T00:47:41.583Z,7.90
2019-05-16T00:48:14.370Z,7.90
2019-05-16T00:48:48.764Z,7.90
2019-05-16T00:49:22.675Z,7.90
2019-05-16T00:49:58.042Z,7.90
2019-05-16T00:50:30.478Z,7.90
2019-05-16T00:51:03.784Z,7.90
2019-05-16T00:51:37.702Z,7.90
2019-05-16T00:52:10.975Z,8.00
2019-05-16T00:52:43.607Z,7.90
2019-05-16T00:53:18.187Z,7.90
2019-05-16T00:53:50.961Z,7.90
2019-05-16T00:54:23.633Z,7.90
2019-05-16T00:54:58.034Z,7.90
2019-05-16T00:55:31.231Z,7.90
2019-05-16T00:56:03.969Z,7.90
2019-05-16T00:56:38.394Z,7.90
2019-05-16T00:57:11.587Z,7.90
2019-05-16T00:57:44.324Z,7.90
2019-05-16T00:58:19.032Z,8.00
2019-05-16T00:58:52.347Z,8.00
2019-05-16T00:59:25.132Z,8.00
2019-05-16T00:59:59.217Z,7.90
2019-05-16T01:00:49.280Z,7.90
2019-05-16T01:01:20.519Z,7.90
2019-05-16T01:01:53.497Z,7.90
2019-05-16T01:02:28.745Z,7.80
2019-05-16T01:03:01.292Z,7.80
2019-05-16T01:03:33.946Z,7.80
2019-05-16T01:04:08.016Z,7.90
2019-05-16T01:04:40.779Z,7.80
2019-05-16T01:05:14.609Z,7.90
2019-05-16T01:05:48.115Z,7.90
2019-05-16T01:06:23.015Z,7.90
2019-05-16T01:06:55.915Z,7.90
2019-05-16T01:07:28.579Z,7.90
2019-05-16T01:08:02.013Z,7.90
2019-05-16T01:08:34.706Z,7.90
2019-05-16T01:09:08.591Z,7.90
2019-05-16T01:09:41.963Z,7.90
2019-05-16T01:10:15.215Z,7.90
2019-05-16T01:10:51.462Z,7.90
2019-05-16T01:11:23.126Z,7.90
2019-05-16T01:11:57.895Z,7.90
2019-05-16T01:12:30.959Z,7.90
2019-05-16T01:13:04.029Z,7.90
2019-05-16T01:13:38.067Z,7.90
2019-05-16T01:14:11.250Z,7.90
2019-05-16T01:14:44.665Z,7.90
2019-05-16T01:15:18.396Z,7.90
2019-05-16T01:15:51.734Z,7.90
2019-05-16T01:16:24.366Z,7.90
2019-05-16T01:16:58.153Z,7.90
2019-05-16T01:17:30.918Z,8.00
2019-05-16T01:18:03.607Z,7.90
2019-05-16T01:18:37.967Z,8.00
2019-05-16T01:19:10.786Z,7.90
2019-05-16T01:19:43.427Z,7.90
2019-05-16T01:20:18.964Z,8.00
2019-05-16T01:20:51.014Z,8.00
2019-05-16T01:21:23.662Z,8.00
2019-05-16T01:21:58.807Z,8.00
2019-05-16T01:22:31.175Z,8.00
2019-05-16T01:23:04.235Z,8.00
2019-05-16T01:23:38.809Z,8.00
2019-05-16T01:24:12.059Z,8.10
2019-05-16T01:24:45.010Z,8.00
2019-05-16T01:25:19.550Z,8.10
2019-05-16T01:25:52.074Z,8.10
2019-05-16T01:26:25.137Z,8.10
2019-05-16T01:26:57.858Z,8.10
2019-05-16T01:27:30.830Z,8.10
2019-05-16T01:28:04.003Z,8.10
2019-05-16T01:28:37.726Z,8.10
2019-05-16T01:29:11.850Z,8.10
2019-05-16T01:29:44.960Z,8.10
2019-05-16T01:30:18.702Z,8.10
2019-05-16T01:30:51.456Z,8.10
2019-05-16T01:31:24.504Z,8.10
2019-05-16T01:31:59.000Z,8.10
2019-05-16T01:32:32.160Z,8.10
2019-05-16T01:33:05.299Z,8.10
2019-05-16T01:33:38.524Z,8.10
2019-05-16T01:34:11.296Z,8.10
2019-05-16T01:34:44.288Z,8.20
2019-05-16T01:35:18.824Z,8.20
2019-05-16T01:35:51.654Z,8.20
2019-05-16T01:36:36.092Z,8.20
2019-05-16T01:36:59.104Z,8.10
2019-05-16T01:37:32.734Z,8.20
2019-05-16T01:38:05.704Z,8.20
2019-05-16T01:38:39.089Z,8.10
2019-05-16T01:39:12.258Z,8.10
2019-05-16T01:39:45.235Z,8.10
2019-05-16T01:40:18.908Z,8.10
2019-05-16T01:40:51.763Z,8.10
2019-05-16T01:41:24.419Z,8.10
2019-05-16T01:41:58.670Z,8.10
2019-05-16T01:42:31.480Z,8.10
2019-05-16T01:43:04.513Z,8.10
2019-05-16T01:43:37.749Z,8.10
2019-05-16T01:44:10.786Z,8.10
2019-05-16T01:44:43.436Z,8.20
2019-05-16T01:45:18.610Z,8.20
2019-05-16T01:45:50.630Z,8.20
2019-05-16T01:46:23.674Z,8.20
2019-05-16T01:46:58.609Z,8.10
2019-05-16T01:47:31.544Z,8.10
2019-05-16T01:48:04.175Z,8.10
2019-05-16T01:48:38.108Z,8.10
2019-05-16T01:49:11.671Z,8.10
2019-05-16T01:49:44.323Z,8.10
2019-05-16T01:50:18.145Z,8.10
2019-05-16T01:50:51.015Z,8.10
2019-05-16T01:51:24.017Z,8.10
2019-05-16T01:51:57.909Z,8.10
2019-05-16T01:52:30.615Z,8.10
2019-05-16T01:53:03.276Z,8.10
2019-05-16T01:53:35.913Z,8.10
2019-05-16T01:54:08.804Z,8.00
2019-05-16T01:54:41.797Z,8.00
2019-05-16T01:55:15.130Z,8.00
2019-05-16T01:55:48.847Z,8.00
2019-05-16T01:56:21.747Z,8.10
2019-05-16T01:56:54.390Z,8.10
2019-05-16T01:57:28.225Z,8.00
2019-05-16T01:58:01.335Z,8.10
2019-05-16T01:58:33.965Z,8.10
2019-05-16T01:59:08.675Z,8.00
2019-05-16T01:59:41.158Z,8.10
2019-05-16T02:00:15.415Z,8.10
2019-05-16T02:00:59.925Z,8.00
2019-05-16T02:01:23.096Z,8.00
2019-05-16T02:02:00.178Z,8.00
2019-05-16T02:02:30.855Z,8.00
2019-05-16T02:03:04.007Z,8.00
2019-05-16T02:03:38.598Z,8.00
2019-05-16T02:04:12.202Z,8.00
2019-05-16T02:04:45.179Z,8.00
2019-05-16T02:05:18.908Z,8.00
2019-05-16T02:05:51.634Z,8.00
2019-05-16T02:06:24.591Z,8.00
2019-05-16T02:06:58.478Z,8.10
2019-05-16T02:07:31.404Z,8.10
2019-05-16T02:08:04.046Z,8.00
2019-05-16T02:08:38.065Z,8.10
2019-05-16T02:09:11.527Z,8.10
2019-05-16T02:09:45.202Z,8.10
2019-05-16T02:10:18.792Z,8.00
2019-05-16T02:10:51.443Z,8.00
2019-05-16T02:11:24.104Z,8.00
2019-05-16T02:11:58.913Z,8.00
2019-05-16T02:12:31.848Z,8.00
2019-05-16T02:13:04.847Z,8.00
2019-05-16T02:13:39.119Z,8.10
2019-05-16T02:14:11.950Z,8.00
2019-05-16T02:14:44.994Z,8.00
2019-05-16T02:15:18.334Z,8.10
2019-05-16T02:15:51.137Z,8.00
2019-05-16T02:16:24.122Z,8.10
2019-05-16T02:16:58.049Z,8.10
2019-05-16T02:17:30.914Z,8.10
2019-05-16T02:18:03.929Z,8.10
2019-05-16T02:18:38.199Z,8.10
2019-05-16T02:19:11.036Z,8.10
2019-05-16T02:19:43.687Z,8.00
2019-05-16T02:20:18.047Z,8.10
2019-05-16T02:20:50.897Z,8.10
2019-05-16T02:21:23.570Z,8.10
2019-05-16T02:21:56.225Z,8.10
2019-05-16T02:22:28.855Z,8.10
2019-05-16T02:23:01.814Z,8.10
2019-05-16T02:23:34.465Z,8.10
2019-05-16T02:24:08.841Z,8.10
2019-05-16T02:24:42.298Z,8.10
2019-05-16T02:25:15.027Z,8.10
2019-05-16T02:25:48.901Z,8.10
2019-05-16T02:26:22.315Z,8.10
2019-05-16T02:26:55.385Z,8.10
2019-05-16T02:27:28.817Z,8.10
2019-05-16T02:28:01.656Z,8.10
2019-05-16T02:28:39.958Z,8.10
2019-05-16T02:29:13.329Z,8.20
2019-05-16T02:29:43.657Z,8.10
2019-05-16T02:30:16.431Z,8.20
2019-05-16T02:30:51.349Z,8.20
2019-05-16T02:31:23.515Z,8.20
2019-05-16T02:31:56.156Z,8.20
2019-05-16T02:32:31.304Z,8.20
2019-05-16T02:33:03.368Z,8.20
2019-05-16T02:33:36.107Z,8.20
2019-05-16T02:34:11.804Z,8.20
2019-05-16T02:34:43.875Z,8.20
2019-05-16T02:35:16.511Z,8.20
2019-05-16T02:35:54.759Z,8.20
2019-05-16T02:36:23.946Z,8.10
2019-05-16T02:37:14.532Z,8.20
2019-05-16T02:37:34.836Z,8.10
2019-05-16T02:38:05.833Z,8.20
2019-05-16T02:38:41.995Z,8.20
2019-05-16T02:39:13.413Z,8.20
2019-05-16T02:39:46.381Z,8.20
2019-05-16T02:40:21.105Z,8.20
2019-05-16T02:40:55.394Z,8.10
2019-05-16T02:41:31.133Z,8.20
2019-05-16T02:42:03.204Z,8.20
2019-05-16T02:42:35.875Z,8.20
2019-05-16T02:43:12.213Z,8.20
2019-05-16T02:43:43.695Z,8.20
2019-05-16T02:44:16.691Z,8.20
2019-05-16T02:44:51.169Z,8.20
2019-05-16T02:45:24.590Z,8.20
2019-05-16T02:46:00.822Z,8.20
2019-05-16T02:46:32.087Z,8.20
2019-05-16T02:47:05.465Z,8.20
2019-05-16T02:47:41.990Z,8.20
2019-05-16T02:48:13.654Z,8.20
2019-05-16T02:48:46.411Z,8.20
2019-05-16T02:49:21.692Z,8.20
2019-05-16T02:49:53.889Z,8.20
2019-05-16T02:50:26.886Z,8.20
2019-05-16T02:51:01.812Z,8.20
2019-05-16T02:51:34.684Z,8.20
2019-05-16T02:52:07.347Z,8.20
2019-05-16T02:52:41.261Z,8.20
2019-05-16T02:53:14.337Z,8.20
2019-05-16T02:53:50.767Z,8.20
2019-05-16T02:54:22.058Z,8.20
2019-05-16T02:54:54.716Z,8.20
2019-05-16T02:55:30.557Z,8.20
2019-05-16T02:56:02.127Z,8.20
2019-05-16T02:56:34.747Z,8.20
2019-05-16T02:57:10.870Z,8.30
2019-05-16T02:57:42.042Z,8.20
2019-05-16T02:58:14.794Z,8.30
2019-05-16T02:58:47.428Z,8.30
2019-05-16T02:59:20.707Z,8.30
2019-05-16T02:59:53.531Z,8.30
2019-05-16T03:00:36.988Z,8.30
2019-05-16T03:01:10.961Z,8.40
2019-05-16T03:01:43.855Z,8.30
2019-05-16T03:02:16.506Z,8.30
2019-05-16T03:02:50.458Z,8.40
2019-05-16T03:03:23.298Z,8.30
2019-05-16T03:03:55.915Z,8.30
2019-05-16T03:04:30.593Z,8.30
2019-05-16T03:05:03.050Z,8.40
2019-05-16T03:05:35.750Z,8.40
2019-05-16T03:06:11.198Z,8.40
2019-05-16T03:06:43.543Z,8.40
2019-05-16T03:07:35.455Z,8.40
2019-05-16T03:07:52.403Z,8.40
2019-05-16T03:08:25.758Z,8.40
2019-05-16T03:09:01.762Z,8.40
2019-05-16T03:09:35.071Z,8.40
2019-05-16T03:10:10.901Z,8.40
2019-05-16T03:10:42.773Z,8.30
2019-05-16T03:11:16.183Z,8.30
2019-05-16T03:11:50.953Z,8.30
2019-05-16T03:12:25.887Z,8.30
2019-05-16T03:13:00.817Z,8.30
2019-05-16T03:13:35.700Z,8.30
2019-05-16T03:14:11.216Z,8.30
2019-05-16T03:14:46.197Z,8.30
2019-05-16T03:15:21.853Z,8.30
2019-05-16T03:15:56.094Z,8.30
2019-05-16T03:16:31.724Z,8.30
2019-05-16T03:17:04.734Z,8.30
2019-05-16T03:17:41.302Z,8.30
2019-05-16T03:18:15.605Z,8.30
2019-05-16T03:18:51.596Z,8.30
2019-05-16T03:19:26.172Z,8.30
2019-05-16T03:20:01.490Z,8.30
2019-05-16T03:20:36.519Z,8.30
2019-05-16T03:21:11.303Z,8.30
2019-05-16T03:21:44.736Z,8.40
2019-05-16T03:22:21.601Z,8.40
2019-05-16T03:22:56.127Z,8.40
2019-05-16T03:23:30.834Z,8.40
2019-05-16T03:24:03.413Z,8.40
2019-05-16T03:24:36.062Z,8.40
2019-05-16T03:25:11.449Z,8.40
2019-05-16T03:25:43.934Z,8.40
2019-05-16T03:26:16.596Z,8.40
2019-05-16T03:26:51.506Z,8.40
2019-05-16T03:27:24.008Z,8.40
2019-05-16T03:27:56.631Z,8.40
2019-05-16T03:28:30.718Z,8.50
2019-05-16T03:29:03.580Z,8.50
2019-05-16T03:29:36.255Z,8.50
2019-05-16T03:30:14.436Z,8.40
2019-05-16T03:30:45.085Z,8.40
2019-05-16T03:31:23.825Z,8.50
2019-05-16T03:31:54.107Z,8.50
2019-05-16T03:32:26.949Z,8.50
2019-05-16T03:33:05.081Z,8.50
2019-05-16T03:33:41.039Z,8.50
2019-05-16T03:34:14.958Z,8.50
2019-05-16T03:34:44.305Z,8.50
2019-05-16T03:35:23.968Z,8.50
2019-05-16T03:35:54.647Z,8.50
2019-05-16T03:36:26.694Z,8.50
2019-05-16T03:37:04.330Z,8.50
2019-05-16T03:37:49.916Z,8.50
2019-05-16T03:38:12.193Z,8.50
2019-05-16T03:38:44.745Z,8.50
2019-05-16T03:39:17.547Z,8.50
2019-05-16T03:39:51.442Z,8.50
2019-05-16T03:40:25.876Z,8.50
2019-05-16T03:41:01.010Z,8.50
2019-05-16T03:41:33.752Z,8.50
2019-05-16T03:42:06.404Z,8.50
2019-05-16T03:42:41.635Z,8.50
2019-05-16T03:43:13.823Z,8.60
2019-05-16T03:43:46.453Z,8.60
2019-05-16T03:44:21.051Z,8.60
2019-05-16T03:44:53.924Z,8.50
2019-05-16T03:45:26.569Z,8.60
2019-05-16T03:46:02.183Z,8.50
2019-05-16T03:46:34.332Z,8.50
2019-05-16T03:47:07.312Z,8.50
2019-05-16T03:47:42.802Z,8.50
2019-05-16T03:48:14.433Z,8.50
2019-05-16T03:48:47.066Z,8.50
2019-05-16T03:49:21.115Z,8.50
2019-05-16T03:49:54.176Z,8.50
2019-05-16T03:50:30.404Z,8.60
2019-05-16T03:51:02.098Z,8.60
2019-05-16T03:51:34.733Z,8.60
2019-05-16T03:52:07.741Z,8.60
2019-05-16T03:52:43.642Z,8.60
2019-05-16T03:53:15.119Z,8.60
2019-05-16T03:53:50.745Z,8.60
2019-05-16T03:54:22.921Z,8.60
2019-05-16T03:54:55.555Z,8.60
2019-05-16T03:55:28.185Z,8.60
2019-05-16T03:56:01.749Z,8.60
2019-05-16T03:56:34.774Z,8.60
2019-05-16T03:57:07.436Z,8.60
2019-05-16T03:57:41.698Z,8.60
2019-05-16T03:58:14.551Z,8.60
2019-05-16T03:58:47.192Z,8.60
2019-05-16T03:59:21.562Z,8.60
2019-05-16T03:59:54.608Z,8.60
2019-05-16T04:00:52.036Z,8.60
2019-05-16T04:01:24.507Z,8.60
2019-05-16T04:01:57.639Z,8.60
2019-05-16T04:02:31.107Z,8.60
2019-05-16T04:03:04.740Z,8.60
2019-05-16T04:03:40.975Z,8.60
2019-05-16T04:04:12.338Z,8.60
2019-05-16T04:04:45.404Z,8.60
2019-05-16T04:05:20.966Z,8.70
2019-05-16T04:05:53.760Z,8.70
2019-05-16T04:06:26.411Z,8.70
2019-05-16T04:07:01.360Z,8.70
2019-05-16T04:07:33.508Z,8.70
2019-05-16T04:08:14.720Z,8.70
2019-05-16T04:08:41.424Z,8.70
2019-05-16T04:09:14.154Z,8.70
2019-05-16T04:09:47.290Z,8.70
2019-05-16T04:10:21.609Z,8.70
2019-05-16T04:10:54.435Z,8.70
2019-05-16T04:11:27.076Z,8.70
2019-05-16T04:12:01.752Z,8.70
2019-05-16T04:12:34.768Z,8.70
2019-05-16T04:13:07.728Z,8.70
2019-05-16T04:13:41.192Z,8.70
2019-05-16T04:14:14.595Z,8.70
2019-05-16T04:14:47.243Z,8.70
2019-05-16T04:15:21.529Z,8.70
2019-05-16T04:15:54.348Z,8.70
2019-05-16T04:16:27.001Z,8.70
2019-05-16T04:17:01.616Z,8.70
2019-05-16T04:17:34.538Z,8.70
2019-05-16T04:18:10.926Z,8.70
2019-05-16T04:18:42.312Z,8.70
2019-05-16T04:19:15.396Z,8.70
2019-05-16T04:19:50.670Z,8.70
2019-05-16T04:20:22.889Z,8.70
2019-05-16T04:20:55.851Z,8.80
2019-05-16T04:21:32.238Z,8.80
2019-05-16T04:22:05.824Z,8.80
2019-05-16T04:22:40.825Z,8.80
2019-05-16T04:23:12.871Z,8.80
2019-05-16T04:23:45.491Z,8.80
2019-05-16T04:24:21.407Z,8.80
2019-05-16T04:24:52.782Z,8.80
2019-05-16T04:25:25.464Z,8.80
2019-05-16T04:26:00.750Z,8.80
2019-05-16T04:26:35.918Z,8.80
2019-05-16T04:27:07.388Z,8.80
2019-05-16T04:27:41.535Z,8.80
2019-05-16T04:28:14.616Z,8.80
2019-05-16T04:28:47.513Z,8.80
2019-05-16T04:29:20.868Z,8.80
2019-05-16T04:29:53.717Z,8.80
2019-05-16T04:30:26.403Z,8.80
2019-05-16T04:31:01.913Z,8.80
2019-05-16T04:31:33.788Z,8.80
2019-05-16T04:32:06.434Z,8.80
2019-05-16T04:32:42.045Z,8.80
2019-05-16T04:33:13.934Z,8.80
2019-05-16T04:33:46.587Z,8.80
2019-05-16T04:34:20.677Z,8.80
2019-05-16T04:34:54.028Z,8.80
2019-05-16T04:35:26.671Z,8.80
2019-05-16T04:36:01.267Z,8.80
2019-05-16T04:36:33.805Z,8.80
2019-05-16T04:37:06.820Z,8.80
2019-05-16T04:37:42.146Z,8.80
2019-05-16T04:38:30.164Z,8.80
2019-05-16T04:38:50.990Z,8.80
2019-05-16T04:39:23.499Z,8.80
2019-05-16T04:39:56.543Z,8.80
2019-05-16T04:40:31.163Z,8.80
2019-05-16T04:41:03.687Z,8.80
2019-05-16T04:41:36.340Z,8.90
2019-05-16T04:42:11.096Z,8.90
2019-05-16T04:42:43.407Z,8.90
2019-05-16T04:43:16.071Z,8.90
2019-05-16T04:43:50.609Z,8.90
2019-05-16T04:44:23.487Z,8.90
2019-05-16T04:44:56.903Z,8.90
2019-05-16T04:45:31.774Z,8.90
2019-05-16T04:46:04.018Z,8.90
2019-05-16T04:46:36.713Z,8.90
2019-05-16T04:47:11.042Z,9.00
2019-05-16T04:47:44.101Z,9.00
2019-05-16T04:48:17.077Z,9.00
2019-05-16T04:48:50.761Z,9.00
2019-05-16T04:49:23.787Z,9.00
2019-05-16T04:49:56.871Z,8.90
2019-05-16T04:50:31.183Z,9.00
2019-05-16T04:51:04.491Z,8.90
2019-05-16T04:51:37.130Z,9.00
2019-05-16T04:52:11.210Z,9.00
2019-05-16T04:52:44.239Z,9.00
2019-05-16T04:53:16.890Z,9.00
2019-05-16T04:53:50.940Z,9.00
2019-05-16T04:54:24.128Z,9.00
2019-05-16T04:54:56.854Z,9.00
2019-05-16T04:55:31.577Z,9.00
2019-05-16T04:56:04.035Z,9.00
2019-05-16T04:56:36.975Z,9.00
2019-05-16T04:57:11.873Z,9.00
2019-05-16T04:57:44.827Z,9.10
2019-05-16T04:58:17.463Z,9.10
2019-05-16T04:58:51.378Z,9.10
2019-05-16T04:59:24.447Z,9.10
2019-05-16T04:59:57.421Z,9.10
2019-05-16T05:00:32.058Z,9.00
2019-05-16T05:01:05.245Z,9.00
2019-05-16T05:01:41.058Z,9.00
2019-05-16T05:02:12.647Z,9.10
2019-05-16T05:02:45.596Z,9.10
2019-05-16T05:03:20.937Z,9.10
2019-05-16T05:04:06.741Z,9.10
2019-05-16T05:04:30.299Z,9.10
2019-05-16T05:05:02.396Z,9.10
2019-05-16T05:05:35.104Z,9.10
2019-05-16T05:06:07.747Z,9.10
2019-05-16T05:06:40.989Z,9.10
2019-05-16T05:07:14.401Z,9.10
2019-05-16T05:07:47.753Z,9.10
2019-05-16T05:08:21.931Z,9.10
2019-05-16T05:08:58.795Z,9.10
2019-05-16T05:09:31.665Z,9.10
2019-05-16T05:10:04.953Z,9.10
2019-05-16T05:10:40.450Z,9.10
2019-05-16T05:11:12.117Z,9.10
2019-05-16T05:11:44.766Z,9.10
2019-05-16T05:12:20.577Z,9.10
2019-05-16T05:12:52.259Z,9.10
2019-05-16T05:13:25.295Z,9.10
2019-05-16T05:14:00.773Z,9.10
2019-05-16T05:14:32.401Z,9.10
2019-05-16T05:15:05.858Z,9.10
2019-05-16T05:15:40.136Z,9.10
2019-05-16T05:16:12.863Z,9.10
2019-05-16T05:16:45.692Z,9.10
2019-05-16T05:17:20.855Z,9.10
2019-05-16T05:17:52.767Z,9.00
2019-05-16T05:18:25.726Z,9.10
2019-05-16T05:19:00.382Z,9.10
2019-05-16T05:19:32.879Z,9.10
2019-05-16T05:20:06.203Z,9.10
2019-05-16T05:20:41.051Z,9.10
2019-05-16T05:21:13.645Z,9.10
2019-05-16T05:21:46.296Z,9.10
2019-05-16T05:22:19.898Z,9.10
2019-05-16T05:22:52.687Z,9.10
2019-05-16T05:23:25.396Z,9.10
2019-05-16T05:24:00.048Z,9.10
2019-05-16T05:24:32.993Z,9.10
2019-05-16T05:25:06.318Z,9.10
2019-05-16T05:25:40.436Z,9.10
2019-05-16T05:26:13.217Z,9.10
2019-05-16T05:26:45.870Z,9.10
2019-05-16T05:27:19.770Z,9.10
2019-05-16T05:27:52.446Z,9.10
2019-05-16T05:28:25.087Z,9.20
2019-05-16T05:28:59.689Z,9.20
2019-05-16T05:29:32.562Z,9.20
2019-05-16T05:30:06.063Z,9.20
2019-05-16T05:30:40.806Z,9.20
2019-05-16T05:31:14.045Z,9.20
2019-05-16T05:31:46.675Z,9.20
2019-05-16T05:32:20.044Z,9.20
2019-05-16T05:32:52.837Z,9.20
2019-05-16T05:33:25.488Z,9.20
2019-05-16T05:34:01.257Z,9.30
2019-05-16T05:34:33.016Z,9.30
2019-05-16T05:35:06.469Z,9.30
2019-05-16T05:35:40.846Z,9.20
2019-05-16T05:36:13.613Z,9.30
2019-05-16T05:36:46.271Z,9.30
2019-05-16T05:37:20.405Z,9.30
2019-05-16T05:37:53.423Z,9.30
2019-05-16T05:38:26.043Z,9.30
2019-05-16T05:39:08.937Z,9.20
2019-05-16T05:39:33.489Z,9.30
2019-05-16T05:40:07.399Z,9.20
2019-05-16T05:40:40.527Z,9.20
2019-05-16T05:41:13.418Z,9.20
2019-05-16T05:41:46.371Z,9.20
2019-05-16T05:42:19.885Z,9.20
2019-05-16T05:42:53.144Z,9.20
2019-05-16T05:43:25.824Z,9.20
2019-05-16T05:43:59.853Z,9.20
2019-05-16T05:44:33.051Z,9.20
2019-05-16T05:45:05.815Z,9.20
2019-05-16T05:45:40.183Z,9.30
2019-05-16T05:46:13.375Z,9.30
2019-05-16T05:46:46.080Z,9.30
2019-05-16T05:47:19.991Z,9.30
2019-05-16T05:47:52.808Z,9.30
2019-05-16T05:48:25.805Z,9.30
2019-05-16T05:48:59.841Z,9.30
2019-05-16T05:49:32.646Z,9.30
2019-05-16T05:50:06.135Z,9.30
2019-05-16T05:50:40.141Z,9.30
2019-05-16T05:51:12.946Z,9.40
2019-05-16T05:51:45.887Z,9.40
2019-05-16T05:52:20.803Z,9.40
2019-05-16T05:52:53.435Z,9.40
2019-05-16T05:53:26.072Z,9.40
2019-05-16T05:54:00.173Z,9.40
2019-05-16T05:54:32.855Z,9.40
2019-05-16T05:55:06.256Z,9.40
2019-05-16T05:55:40.515Z,9.40
2019-05-16T05:56:13.229Z,9.40
2019-05-16T05:56:46.223Z,9.40
2019-05-16T05:57:20.862Z,9.40
2019-05-16T05:57:53.670Z,9.40
2019-05-16T05:58:26.307Z,9.40
2019-05-16T05:59:01.571Z,9.40
2019-05-16T05:59:34.788Z,9.40
2019-05-16T06:00:09.918Z,9.40
2019-05-16T06:00:42.891Z,9.40
2019-05-16T06:01:15.540Z,9.40
2019-05-16T06:01:51.593Z,9.40
2019-05-16T06:02:23.055Z,9.40
2019-05-16T06:02:55.720Z,9.40
2019-05-16T06:03:32.385Z,9.40
2019-05-16T06:04:03.321Z,9.40
2019-05-16T06:04:35.946Z,9.40
2019-05-16T06:05:10.546Z,9.40
2019-05-16T06:05:43.501Z,9.40
2019-05-16T06:06:16.123Z,9.40
2019-05-16T06:06:50.442Z,9.40
2019-05-16T06:07:23.560Z,9.40
2019-05-16T06:07:56.535Z,9.40
2019-05-16T06:08:30.537Z,9.40
2019-05-16T06:09:05.265Z,9.40
2019-05-16T06:09:52.086Z,9.40
2019-05-16T06:10:12.786Z,9.40
2019-05-16T06:10:45.756Z,9.30
2019-05-16T06:11:20.493Z,9.30
2019-05-16T06:11:53.643Z,9.30
2019-05-16T06:12:26.630Z,9.30
2019-05-16T06:13:00.591Z,9.30
2019-05-16T06:13:33.410Z,9.30
2019-05-16T06:14:06.059Z,9.30
2019-05-16T06:14:41.786Z,9.30
2019-05-16T06:15:14.461Z,9.30
2019-05-16T06:15:47.418Z,9.30
2019-05-16T06:16:20.680Z,9.30
2019-05-16T06:16:53.451Z,9.30
2019-05-16T06:17:26.099Z,9.30
2019-05-16T06:18:00.267Z,9.30
2019-05-16T06:18:33.124Z,9.30
2019-05-16T06:19:06.137Z,9.30
2019-05-16T06:19:40.244Z,9.30
2019-05-16T06:20:14.870Z,9.30
2019-05-16T06:20:50.861Z,9.30
2019-05-16T06:21:22.804Z,9.30
2019-05-16T06:21:55.443Z,9.30
2019-05-16T06:22:29.887Z,9.30
2019-05-16T06:23:02.548Z,9.30
2019-05-16T06:23:35.487Z,9.20
2019-05-16T06:24:10.542Z,9.20
2019-05-16T06:24:42.747Z,9.20
2019-05-16T06:25:15.404Z,9.30
2019-05-16T06:25:50.521Z,9.30
2019-05-16T06:26:23.233Z,9.30
2019-05-16T06:26:56.307Z,9.20
2019-05-16T06:27:30.235Z,9.20
2019-05-16T06:28:03.569Z,9.20
2019-05-16T06:28:36.219Z,9.20
2019-05-16T06:29:10.395Z,9.20
2019-05-16T06:29:43.397Z,9.20
2019-05-16T06:30:16.609Z,9.20
2019-05-16T06:30:51.622Z,9.20
2019-05-16T06:31:23.773Z,9.30
2019-05-16T06:31:57.598Z,9.30
2019-05-16T06:32:30.502Z,9.30
2019-05-16T06:33:03.620Z,9.30
2019-05-16T06:33:36.278Z,9.30
2019-05-16T06:34:14.865Z,9.30
2019-05-16T06:34:43.974Z,9.30
2019-05-16T06:35:16.628Z,9.30
2019-05-16T06:35:51.330Z,9.30
2019-05-16T06:36:24.187Z,9.30
2019-05-16T06:36:57.582Z,9.30
2019-05-16T06:37:30.953Z,9.30
2019-05-16T06:38:03.812Z,9.30
2019-05-16T06:38:36.803Z,9.30
2019-05-16T06:39:11.401Z,9.30
2019-05-16T06:39:45.521Z,9.40
2019-05-16T06:40:20.292Z,9.40
2019-05-16T06:40:53.053Z,9.30
2019-05-16T06:41:26.091Z,9.40
2019-05-16T06:42:00.501Z,9.40
2019-05-16T06:42:33.210Z,9.30
2019-05-16T06:43:06.309Z,9.30
2019-05-16T06:43:40.032Z,9.40
2019-05-16T06:44:12.923Z,9.40
2019-05-16T06:44:45.572Z,9.30
2019-05-16T06:45:20.332Z,9.40
2019-05-16T06:45:53.099Z,9.30
2019-05-16T06:46:25.735Z,9.40
2019-05-16T06:47:14.972Z,9.40
2019-05-16T06:47:32.908Z,9.30
2019-05-16T06:48:05.910Z,9.30
2019-05-16T06:48:39.822Z,9.40
2019-05-16T06:49:13.148Z,9.30
2019-05-16T06:49:45.778Z,9.40
2019-05-16T06:50:20.858Z,9.40
2019-05-16T06:50:52.856Z,9.40
2019-05-16T06:51:25.995Z,9.40
2019-05-16T06:51:59.663Z,9.40
2019-05-16T06:52:32.785Z,9.40
2019-05-16T06:53:05.594Z,9.40
2019-05-16T06:53:40.479Z,9.40
2019-05-16T06:54:13.104Z,9.40
2019-05-16T06:54:45.749Z,9.40
2019-05-16T06:55:20.385Z,9.50
2019-05-16T06:55:53.223Z,9.40
2019-05-16T06:56:26.617Z,9.50
2019-05-16T06:57:00.166Z,9.50
2019-05-16T06:57:33.115Z,9.40
2019-05-16T06:58:06.135Z,9.50
2019-05-16T06:58:47.695Z,9.50
2019-05-16T06:59:13.594Z,9.50
2019-05-16T06:59:46.227Z,9.50
2019-05-16T07:00:20.918Z,9.50
2019-05-16T07:00:53.328Z,9.50
2019-05-16T07:01:26.401Z,9.50
2019-05-16T07:02:00.401Z,9.50
2019-05-16T07:02:34.598Z,9.50
2019-05-16T07:03:09.532Z,9.50
2019-05-16T07:03:41.828Z,9.50
2019-05-16T07:04:14.898Z,9.40
2019-05-16T07:04:47.607Z,9.40
2019-05-16T07:05:20.951Z,9.40
2019-05-16T07:05:53.731Z,9.40
2019-05-16T07:06:47.549Z,9.40
2019-05-16T07:07:03.014Z,9.40
2019-05-16T07:07:36.176Z,9.40
2019-05-16T07:08:10.719Z,9.50
2019-05-16T07:08:43.865Z,9.50
2019-05-16T07:09:17.422Z,9.40
2019-05-16T07:10:00.156Z,9.50
2019-05-16T07:10:25.844Z,9.40
2019-05-16T07:11:00.013Z,9.50
2019-05-16T07:11:33.647Z,9.50
2019-05-16T07:12:06.785Z,9.50
2019-05-16T07:12:41.321Z,9.50
2019-05-16T07:13:13.860Z,9.50
2019-05-16T07:13:46.900Z,9.50
2019-05-16T07:14:22.749Z,9.40
2019-05-16T07:14:54.796Z,9.40
2019-05-16T07:15:29.705Z,9.50
2019-05-16T07:16:02.272Z,9.50
2019-05-16T07:16:35.647Z,9.50
2019-05-16T07:17:09.702Z,9.50
2019-05-16T07:17:42.457Z,9.50
2019-05-16T07:18:15.100Z,9.50
2019-05-16T07:18:50.401Z,9.50
2019-05-16T07:19:22.520Z,9.50
2019-05-16T07:19:55.531Z,9.50
2019-05-16T07:20:30.169Z,9.50
2019-05-16T07:21:02.871Z,9.50
2019-05-16T07:21:35.520Z,9.50
2019-05-16T07:22:10.908Z,9.50
2019-05-16T07:22:43.180Z,9.50
2019-05-16T07:23:16.479Z,9.50
2019-05-16T07:23:51.110Z,9.50
2019-05-16T07:24:23.580Z,9.50
2019-05-16T07:24:56.622Z,9.50
2019-05-16T07:25:30.141Z,9.50
2019-05-16T07:26:03.199Z,9.50
2019-05-16T07:26:35.867Z,9.50